Time;durP1;ratioP1;P1;durP2;ratioP2;P2;SDS_P1;SDS_P2;PMS_P1;PMS_P2;Temp;Humidity;BMP_temperature;BMP_pressure;BME280_temperature;BME280_humidity;BME280_pressure;Samples;Min_cycle;Max_cycle;Signal;HPM_P1;HPM_P2
2022/02/15 00:01:23;;;;;;;22.85;11.70;;;-2.80;99.90;;;;;;5076692;28;20025;-95
2022/02/15 00:03:48;;;;;;;27.70;12.50;;;-2.80;99.90;;;;;;5076713;28;20052;-95
2022/02/15 00:06:14;;;;;;;28.92;12.75;;;-2.80;99.90;;;;;;5076876;28;20430;-95
2022/02/15 00:08:40;;;;;;;31.13;13.88;;;-2.80;99.90;;;;;;5076665;28;20028;-95
2022/02/15 00:11:06;;;;;;;29.50;12.48;;;-2.80;99.90;;;;;;5076540;28;20030;-95
2022/02/15 00:13:31;;;;;;;24.13;12.13;;;-2.90;99.90;;;;;;5076433;28;20116;-95
2022/02/15 00:15:57;;;;;;;26.77;12.50;;;-2.90;99.90;;;;;;5076353;28;20021;-95
2022/02/15 00:18:23;;;;;;;28.02;12.77;;;-2.90;99.90;;;;;;5076661;28;20025;-95
2022/02/15 00:20:49;;;;;;;30.40;13.27;;;-2.90;99.90;;;;;;5076513;28;20021;-95
2022/02/15 00:23:14;;;;;;;28.95;12.98;;;-3.00;99.90;;;;;;5077243;28;20067;-95
2022/02/15 00:25:40;;;;;;;24.50;12.88;;;-2.90;99.90;;;;;;5076235;28;20029;-94
2022/02/15 00:28:06;;;;;;;28.58;13.25;;;-3.00;99.90;;;;;;5076131;28;20032;-96
2022/02/15 00:30:31;;;;;;;34.25;13.65;;;-3.00;99.90;;;;;;5076095;28;20031;-95
2022/02/15 00:32:57;;;;;;;30.58;13.68;;;-3.00;99.90;;;;;;5075968;28;20041;-95
2022/02/15 00:35:23;;;;;;;28.27;14.02;;;-3.00;99.90;;;;;;5076294;28;20020;-95
2022/02/15 00:37:49;;;;;;;38.70;15.82;;;-3.00;99.90;;;;;;5076168;28;20021;-95
2022/02/15 00:40:15;;;;;;;34.45;14.50;;;-2.90;99.90;;;;;;5076206;28;20027;-95
2022/02/15 00:42:41;;;;;;;37.25;14.77;;;-2.90;99.90;;;;;;5075970;28;20029;-95
2022/02/15 00:45:08;;;;;;;34.80;14.93;;;-3.00;99.90;;;;;;5076051;28;20031;-95
2022/02/15 00:47:34;;;;;;;35.85;16.33;;;-3.00;99.90;;;;;;5076160;28;20051;-95
2022/02/15 00:50:00;;;;;;;36.45;15.25;;;-3.00;99.90;;;;;;5075816;28;20024;-95
2022/02/15 00:52:27;;;;;;;37.40;15.40;;;-3.00;99.90;;;;;;5075730;28;20074;-94
2022/02/15 00:54:54;;;;;;;38.78;16.05;;;-3.00;99.90;;;;;;5075815;28;20429;-94
2022/02/15 00:57:22;;;;;;;41.00;17.40;;;-3.00;99.90;;;;;;5076056;28;20474;-94
2022/02/15 00:59:49;;;;;;;46.45;16.45;;;-3.10;99.90;;;;;;5075619;28;20036;-95
2022/02/15 01:02:15;;;;;;;38.83;15.65;;;-3.10;99.90;;;;;;5075603;28;20032;-95
2022/02/15 01:04:41;;;;;;;38.42;16.08;;;-3.10;99.90;;;;;;5075162;28;20359;-94
2022/02/15 01:10:29;;;;;;;37.20;14.23;;;-3.10;99.90;;;;;;5076839;28;20027;-95
2022/02/15 01:12:54;;;;;;;34.28;15.73;;;-3.20;99.90;;;;;;5075372;28;20025;-94
2022/02/15 01:15:20;;;;;;;35.08;15.35;;;-3.20;99.90;;;;;;5075455;28;20027;-95
2022/02/15 01:17:46;;;;;;;31.90;13.95;;;-3.20;99.90;;;;;;5075595;28;20114;-94
2022/02/15 01:20:13;;;;;;;36.70;16.00;;;-3.20;99.90;;;;;;5075271;28;20122;-94
2022/02/15 01:22:39;;;;;;;37.35;15.57;;;-3.30;99.90;;;;;;5075419;28;20028;-95
2022/02/15 01:25:06;;;;;;;47.05;18.17;;;-3.30;99.90;;;;;;5075186;28;20120;-94
2022/02/15 01:27:32;;;;;;;44.10;17.25;;;-3.30;99.90;;;;;;5075184;28;20036;-94
2022/02/15 01:29:58;;;;;;;41.65;18.40;;;-3.30;99.90;;;;;;5075858;28;20044;-94
2022/02/15 01:32:24;;;;;;;38.35;17.27;;;-3.40;99.90;;;;;;5074817;28;20048;-95
2022/02/15 01:34:50;;;;;;;38.60;16.60;;;-3.40;99.90;;;;;;5075106;28;20468;-94
2022/02/15 01:37:15;;;;;;;45.08;18.55;;;-3.40;99.90;;;;;;5075226;28;20017;-94
2022/02/15 01:39:41;;;;;;;44.80;19.33;;;-3.30;99.90;;;;;;5075296;28;20022;-95
2022/02/15 01:42:08;;;;;;;43.17;19.35;;;-3.30;99.90;;;;;;5074758;28;20367;-95
2022/02/15 01:44:35;;;;;;;38.05;16.27;;;-3.30;99.90;;;;;;5074926;28;20024;-94
2022/02/15 01:47:01;;;;;;;44.13;20.17;;;-3.30;99.90;;;;;;5074762;28;20032;-94
2022/02/15 01:49:27;;;;;;;36.80;18.15;;;-3.30;99.90;;;;;;5074797;28;20029;-94
2022/02/15 01:51:53;;;;;;;35.95;16.65;;;-3.30;99.90;;;;;;5074663;28;20062;-95
2022/02/15 01:54:18;;;;;;;41.30;17.77;;;-3.30;99.90;;;;;;5074940;28;20024;-94
2022/02/15 01:56:45;;;;;;;38.63;17.02;;;-3.30;99.90;;;;;;5074698;28;20052;-94
2022/02/15 01:59:10;;;;;;;55.75;21.38;;;-3.30;99.90;;;;;;5074738;28;20116;-94
2022/02/15 02:01:36;;;;;;;40.78;18.00;;;-3.30;99.90;;;;;;5074622;28;20056;-94
2022/02/15 02:04:02;;;;;;;34.22;15.77;;;-3.20;99.90;;;;;;5074574;28;20046;-95
2022/02/15 02:06:28;;;;;;;33.95;16.60;;;-3.20;99.90;;;;;;5074331;28;20031;-94
2022/02/15 02:08:54;;;;;;;39.72;16.45;;;-3.20;99.90;;;;;;5074390;28;20027;-94
2022/02/15 02:11:19;;;;;;;34.80;14.85;;;-3.20;99.90;;;;;;5074331;28;20116;-95
2022/02/15 02:13:45;;;;;;;35.90;15.75;;;-3.20;99.90;;;;;;5074504;28;20025;-94
2022/02/15 02:16:11;;;;;;;32.80;15.30;;;-3.20;99.90;;;;;;5073578;28;20020;-94
2022/02/15 02:18:37;;;;;;;28.50;14.85;;;-3.20;99.90;;;;;;5074070;28;20494;-94
2022/02/15 02:21:06;;;;;;;35.00;15.95;;;-3.20;99.90;;;;;;5074267;28;20020;-94
2022/02/15 02:23:32;;;;;;;29.77;14.40;;;-3.20;99.90;;;;;;5073962;28;20032;-94
2022/02/15 02:25:58;;;;;;;26.95;12.70;;;-3.20;99.90;;;;;;5074096;28;20059;-94
2022/02/15 02:28:24;;;;;;;25.75;13.43;;;-3.20;99.90;;;;;;5074003;28;20075;-94
2022/02/15 02:30:50;;;;;;;32.80;13.63;;;-3.20;99.90;;;;;;5074136;28;20032;-94
2022/02/15 02:33:16;;;;;;;28.35;13.27;;;-3.20;99.90;;;;;;5073799;28;20078;-94
2022/02/15 02:35:42;;;;;;;24.90;13.20;;;-3.20;99.90;;;;;;5074004;28;20035;-94
2022/02/15 02:38:08;;;;;;;32.97;13.10;;;-3.20;99.90;;;;;;5073861;28;20033;-95
2022/02/15 02:40:34;;;;;;;27.77;13.18;;;-3.20;99.90;;;;;;5073813;28;20111;-94
2022/02/15 02:43:00;;;;;;;30.13;13.82;;;-3.30;99.90;;;;;;5073901;28;20034;-94
2022/02/15 02:45:26;;;;;;;28.58;14.20;;;-3.30;99.90;;;;;;5073659;28;20024;-94
2022/02/15 02:47:54;;;;;;;31.98;13.70;;;-3.20;99.90;;;;;;5073748;28;20028;-94
2022/02/15 02:50:24;;;;;;;29.20;13.95;;;-3.20;99.90;;;;;;5073531;28;20032;-94
2022/02/15 02:52:50;;;;;;;27.50;13.50;;;-3.20;99.90;;;;;;5073912;28;20391;-94
2022/02/15 02:55:16;;;;;;;36.38;15.52;;;-3.10;99.90;;;;;;5073648;28;20028;-95
2022/02/15 02:57:42;;;;;;;27.45;13.15;;;-3.20;99.90;;;;;;5073593;28;20032;-94
2022/02/15 03:00:13;;;;;;;27.52;13.48;;;-3.20;99.90;;;;;;5073441;28;20112;-95
2022/02/15 03:02:39;;;;;;;40.72;17.20;;;-3.20;99.90;;;;;;5073445;28;20025;-94
2022/02/15 03:05:05;;;;;;;33.72;15.15;;;-3.20;99.90;;;;;;5073459;28;20032;-94
2022/02/15 03:07:31;;;;;;;37.80;15.95;;;-3.20;99.90;;;;;;5073366;28;20025;-94
2022/02/15 03:09:56;;;;;;;39.05;17.48;;;-3.20;99.90;;;;;;5073462;28;20020;-95
2022/02/15 03:12:22;;;;;;;33.78;15.38;;;-3.20;99.90;;;;;;5073493;28;20390;-94
2022/02/15 03:14:48;;;;;;;37.47;17.90;;;-3.20;99.90;;;;;;5073355;28;20035;-94
2022/02/15 03:17:15;;;;;;;34.80;16.33;;;-3.20;99.90;;;;;;5073152;28;20017;-94
2022/02/15 03:19:41;;;;;;;39.53;16.85;;;-3.20;99.90;;;;;;5073355;28;20032;-94
2022/02/15 03:22:07;;;;;;;48.58;18.88;;;-3.20;99.90;;;;;;5073167;28;20028;-95
2022/02/15 03:24:36;;;;;;;40.22;17.83;;;-3.30;99.90;;;;;;5073306;28;20048;-94
2022/02/15 03:27:02;;;;;;;38.08;18.15;;;-3.20;99.90;;;;;;5073119;28;20055;-94
2022/02/15 03:29:27;;;;;;;36.90;16.98;;;-3.30;99.90;;;;;;5073211;28;20060;-95
2022/02/15 03:31:53;;;;;;;34.20;16.20;;;-3.30;99.90;;;;;;5072937;28;20053;-94
2022/02/15 03:34:19;;;;;;;39.03;17.88;;;-3.30;99.90;;;;;;5073307;28;20017;-95
2022/02/15 03:36:45;;;;;;;35.47;17.73;;;-3.30;99.90;;;;;;5073016;28;20024;-94
2022/02/15 03:39:11;;;;;;;34.70;17.38;;;-3.30;99.90;;;;;;5073029;28;20059;-95
2022/02/15 03:44:22;;;;;;;42.40;16.83;;;-3.30;99.90;;;;;;5074734;28;20074;-94
2022/02/15 03:46:49;;;;;;;38.92;17.77;;;-3.40;99.90;;;;;;5073131;28;20082;-94
2022/02/15 03:49:16;;;;;;;39.08;17.25;;;-3.40;99.90;;;;;;5073127;28;20096;-94
2022/02/15 03:51:41;;;;;;;40.13;16.95;;;-3.50;99.90;;;;;;5073053;28;20103;-94
2022/02/15 03:54:08;;;;;;;36.42;16.73;;;-3.40;99.90;;;;;;5073034;28;20509;-94
2022/02/15 03:56:34;;;;;;;37.33;17.40;;;-3.40;99.90;;;;;;5073126;28;20023;-94
2022/02/15 03:59:01;;;;;;;35.58;17.05;;;-3.50;99.90;;;;;;5072921;28;20070;-94
2022/02/15 04:01:27;;;;;;;37.00;17.27;;;-3.50;99.90;;;;;;5073127;28;20028;-95
2022/02/15 04:03:53;;;;;;;36.97;16.40;;;-3.40;99.90;;;;;;5072912;28;20483;-94
2022/02/15 04:06:19;;;;;;;38.80;16.70;;;-3.50;99.90;;;;;;5072841;28;20020;-95
2022/02/15 04:08:44;;;;;;;34.55;15.50;;;-3.50;99.90;;;;;;5072848;28;20025;-94
2022/02/15 04:11:12;;;;;;;36.42;15.88;;;-3.50;99.90;;;;;;5072987;28;20025;-94
2022/02/15 04:13:38;;;;;;;32.08;16.40;;;-3.50;99.90;;;;;;5072688;28;20082;-94
2022/02/15 04:16:05;;;;;;;32.90;15.93;;;-3.50;99.90;;;;;;5072850;28;20032;-95
2022/02/15 04:18:31;;;;;;;38.83;15.93;;;-3.50;99.90;;;;;;5072654;28;20060;-94
2022/02/15 04:20:57;;;;;;;30.95;15.05;;;-3.50;99.90;;;;;;5072697;28;20501;-94
2022/02/15 04:23:22;;;;;;;27.45;13.50;;;-3.50;99.90;;;;;;5072608;28;20068;-95
2022/02/15 04:25:48;;;;;;;35.10;15.38;;;-3.60;99.90;;;;;;5072742;28;20032;-94
2022/02/15 04:28:14;;;;;;;27.60;14.05;;;-3.60;99.90;;;;;;5072744;28;20078;-94
2022/02/15 04:30:39;;;;;;;32.53;13.98;;;-3.60;99.90;;;;;;5072788;28;20028;-95
2022/02/15 04:33:07;;;;;;;28.33;13.95;;;-3.50;99.90;;;;;;5072468;28;20080;-94
2022/02/15 04:35:32;;;;;;;35.25;15.75;;;-3.50;99.90;;;;;;5072496;28;20071;-94
2022/02/15 04:37:58;;;;;;;28.45;14.02;;;-3.60;99.90;;;;;;5072616;28;20427;-94
2022/02/15 04:40:24;;;;;;;30.65;15.05;;;-3.60;99.90;;;;;;5074558;28;20028;-94
2022/02/15 04:42:49;;;;;;;39.53;16.42;;;-3.60;99.90;;;;;;5077291;28;20025;-94
2022/02/15 04:45:15;;;;;;;41.80;18.33;;;-3.50;99.90;;;;;;5076058;28;20029;-95
2022/02/15 04:47:41;;;;;;;45.55;19.60;;;-3.50;99.90;;;;;;5076618;28;20435;-94
2022/02/15 04:50:08;;;;;;;50.83;19.40;;;-3.50;99.90;;;;;;5076351;28;20082;-95
2022/02/15 04:52:33;;;;;;;44.38;19.10;;;-3.50;99.90;;;;;;5075492;28;20027;-94
2022/02/15 04:54:59;;;;;;;42.58;17.77;;;-3.50;99.90;;;;;;5076058;28;20021;-94
2022/02/15 04:57:25;;;;;;;54.13;20.48;;;-3.50;99.90;;;;;;5075834;28;20108;-94
2022/02/15 04:59:50;;;;;;;43.92;18.38;;;-3.50;99.90;;;;;;5075943;28;20025;-92
2022/02/15 05:02:16;;;;;;;55.28;24.00;;;-3.50;99.90;;;;;;5075709;28;20033;-94
2022/02/15 05:04:50;;;;;;;55.25;24.40;;;-3.50;99.90;;;;;;5075672;28;20020;-93
2022/02/15 05:07:17;;;;;;;57.80;25.70;;;-3.50;99.90;;;;;;5075566;28;20025;-93
2022/02/15 05:09:46;;;;;;;50.22;23.52;;;-3.40;99.90;;;;;;5075739;28;20028;-94
2022/02/15 05:12:15;;;;;;;53.30;23.30;;;-3.40;99.90;;;;;;5075449;28;20028;-94
2022/02/15 05:14:41;;;;;;;55.75;22.95;;;-3.30;99.90;;;;;;5077403;28;20021;-93
2022/02/15 05:17:07;;;;;;;50.15;22.42;;;-3.30;99.90;;;;;;5076190;28;20029;-95
2022/02/15 05:19:33;;;;;;;42.40;20.30;;;-3.20;99.90;;;;;;5075331;28;20043;-94
2022/02/15 05:22:00;;;;;;;46.88;19.13;;;-3.10;99.90;;;;;;5076016;28;20370;-95
2022/02/15 05:24:25;;;;;;;40.25;17.40;;;-3.10;99.90;;;;;;5075320;28;20025;-94
2022/02/15 05:26:51;;;;;;;39.47;17.33;;;-3.00;99.90;;;;;;5075600;28;20025;-93
2022/02/15 05:29:17;;;;;;;38.65;17.10;;;-3.00;99.90;;;;;;5075318;28;20485;-94
2022/02/15 05:31:45;;;;;;;37.63;16.65;;;-2.90;99.90;;;;;;5074988;28;20048;-94
2022/02/15 05:34:10;;;;;;;43.65;17.30;;;-2.90;99.90;;;;;;5075100;28;20016;-93
2022/02/15 05:36:36;;;;;;;34.88;15.45;;;-2.80;99.90;;;;;;5075208;28;20135;-94
2022/02/15 05:39:02;;;;;;;34.28;14.85;;;-2.70;99.90;;;;;;5074904;28;20024;-94
2022/02/15 05:41:28;;;;;;;44.92;16.67;;;-2.70;99.90;;;;;;5074986;28;20082;-94
2022/02/15 05:43:54;;;;;;;39.22;16.58;;;-2.60;99.90;;;;;;5074925;28;20024;-95
2022/02/15 05:46:20;;;;;;;34.88;17.77;;;-2.60;99.90;;;;;;5074863;28;20031;-95
2022/02/15 05:48:45;;;;;;;35.88;16.38;;;-2.50;99.90;;;;;;5075054;28;20021;-95
2022/02/15 05:51:11;;;;;;;36.42;17.27;;;-2.40;99.90;;;;;;5074857;28;20493;-94
2022/02/15 05:53:37;;;;;;;36.72;16.58;;;-2.30;99.90;;;;;;5074651;28;20029;-94
2022/02/15 05:56:03;;;;;;;37.70;17.00;;;-2.30;99.90;;;;;;5074490;28;20031;-94
2022/02/15 16:19:52;;;;;;;49.90;21.95;;;1.70;99.90;;;;;;5091417;28;20440;-94
2022/02/15 16:22:17;;;;;;;53.72;21.98;;;1.70;99.90;;;;;;5090737;28;20478;-94
2022/02/15 16:24:43;;;;;;;61.45;24.98;;;1.70;99.90;;;;;;5090683;28;20466;-95
2022/02/15 16:27:09;;;;;;;52.20;23.08;;;1.80;99.90;;;;;;5090668;28;20070;-94
2022/02/15 16:29:41;;;;;;;45.25;20.90;;;1.80;99.90;;;;;;5090886;28;20020;-94
2022/02/15 16:32:13;;;;;;;55.28;25.67;;;1.80;99.90;;;;;;5091532;28;20025;-94
2022/02/15 16:34:42;;;;;;;53.70;25.80;;;1.90;99.90;;;;;;5091720;28;20375;-94
2022/02/15 16:37:09;;;;;;;62.72;28.52;;;1.90;99.90;;;;;;5090497;28;20031;-94
2022/02/15 16:39:36;;;;;;;73.20;32.55;;;2.00;99.90;;;;;;5090413;28;20027;-94
2022/02/15 16:42:02;;;;;;;55.35;27.15;;;2.00;99.90;;;;;;5090255;28;20052;-94
2022/02/15 16:44:28;;;;;;;72.05;31.38;;;2.10;99.90;;;;;;5090987;28;20024;-94
2022/02/15 16:46:54;;;;;;;65.15;26.65;;;2.10;99.90;;;;;;5090094;28;20025;-94
2022/02/15 16:49:21;;;;;;;64.50;29.00;;;2.20;99.90;;;;;;5090271;28;20363;-95
2022/02/15 16:51:48;;;;;;;53.35;25.05;;;2.30;99.90;;;;;;5090127;28;20028;-94
2022/02/15 16:54:15;;;;;;;59.95;25.20;;;2.30;99.90;;;;;;5090175;28;20027;-94
2022/02/15 16:56:41;;;;;;;46.83;23.77;;;2.40;99.90;;;;;;5090236;28;20032;-95
2022/02/15 16:59:11;;;;;;;49.50;22.15;;;2.40;99.90;;;;;;5090206;28;20035;-96
2022/02/15 17:01:37;;;;;;;46.63;22.33;;;2.40;99.90;;;;;;5090533;28;20107;-95
2022/02/15 17:04:10;;;;;;;46.38;21.60;;;2.40;99.90;;;;;;5090239;28;20462;-96
2022/02/15 17:06:37;;;;;;;67.25;27.77;;;2.50;99.90;;;;;;5088968;28;20028;-95
2022/02/15 17:09:04;;;;;;;63.60;28.23;;;2.40;99.90;;;;;;5090742;28;20050;-96
2022/02/15 17:11:30;;;;;;;61.65;28.13;;;2.40;99.90;;;;;;5089952;28;20024;-95
2022/02/15 17:13:59;;;;;;;60.00;28.27;;;2.50;99.90;;;;;;5087809;28;20035;-96
2022/02/15 17:16:31;;;;;;;78.33;32.97;;;2.50;99.90;;;;;;5090343;28;20043;-95
2022/02/15 17:19:02;;;;;;;92.82;37.13;;;2.50;99.90;;;;;;5090187;28;20292;-96
2022/02/15 17:21:28;;;;;;;81.80;30.77;;;2.50;99.90;;;;;;5089871;28;20107;-93
2022/02/15 17:23:54;;;;;;;55.85;23.33;;;2.50;99.90;;;;;;5089453;28;20032;-94
2022/02/15 17:26:24;;;;;;;48.42;23.65;;;2.50;99.90;;;;;;5089792;28;20020;-94
2022/02/15 17:28:49;;;;;;;58.60;25.93;;;2.50;99.90;;;;;;5089339;28;20028;-94
2022/02/15 17:31:16;;;;;;;56.35;28.30;;;2.50;99.90;;;;;;5076240;28;20589;-95
2022/02/15 17:33:41;;;;;;;48.10;25.45;;;2.50;99.90;;;;;;5073519;28;20028;-95
2022/02/15 17:36:10;;;;;;;54.42;27.50;;;2.50;99.90;;;;;;5076329;28;20035;-96
2022/02/15 17:38:36;;;;;;;44.47;21.95;;;2.50;99.90;;;;;;5075793;28;20078;-96
2022/02/15 17:41:05;;;;;;;40.13;19.63;;;2.50;99.90;;;;;;5075901;28;20024;-95
2022/02/15 17:43:31;;;;;;;43.13;22.10;;;2.50;99.90;;;;;;5075742;28;20094;-95
2022/02/15 17:46:03;;;;;;;48.63;24.77;;;2.50;99.90;;;;;;5076194;28;20462;-93
2022/02/15 17:48:30;;;;;;;36.72;19.77;;;2.50;99.90;;;;;;5075818;28;20024;-94
2022/02/15 17:50:56;;;;;;;51.95;23.98;;;2.50;99.90;;;;;;5075500;28;20040;-94
2022/02/15 17:53:22;;;;;;;44.40;20.50;;;2.50;99.90;;;;;;5075772;28;20036;-94
2022/02/15 17:55:48;;;;;;;39.38;20.27;;;2.50;99.90;;;;;;5075547;28;20024;-93
2022/02/15 17:58:17;;;;;;;45.20;21.42;;;2.50;99.90;;;;;;5075642;28;20024;-93
2022/02/15 18:00:43;;;;;;;39.30;19.77;;;2.50;99.90;;;;;;5075393;28;20025;-94
2022/02/15 18:03:09;;;;;;;38.17;18.13;;;2.50;99.90;;;;;;5075098;28;20535;-93
2022/02/15 18:05:36;;;;;;;34.92;17.33;;;2.50;99.90;;;;;;5075303;28;20032;-92
2022/02/15 18:08:06;;;;;;;31.08;15.35;;;2.50;99.90;;;;;;5075398;28;20029;-92
2022/02/15 18:10:33;;;;;;;29.60;14.82;;;2.50;99.90;;;;;;5075171;28;20035;-92
2022/02/15 18:12:58;;;;;;;27.10;13.02;;;2.50;99.90;;;;;;5075158;28;20020;-92
2022/02/15 18:15:24;;;;;;;21.88;13.60;;;2.50;99.90;;;;;;5074982;28;20409;-92
2022/02/15 18:17:52;;;;;;;28.80;15.07;;;2.50;99.90;;;;;;5054840;28;20061;-93
2022/02/15 18:20:18;;;;;;;26.92;14.88;;;2.50;99.90;;;;;;5038274;28;20144;-92
2022/02/15 18:22:44;;;;;;;24.95;14.43;;;2.50;99.90;;;;;;5074716;28;20137;-93
2022/02/15 18:25:10;;;;;;;21.02;12.15;;;2.50;99.90;;;;;;5058558;28;20032;-94
2022/02/15 18:27:36;;;;;;;23.48;14.55;;;2.50;99.90;;;;;;5058355;28;20394;-94
2022/02/15 18:30:02;;;;;;;26.20;14.07;;;2.50;99.90;;;;;;5058041;28;20025;-93
2022/02/15 18:32:28;;;;;;;23.85;13.90;;;2.40;99.90;;;;;;5057514;28;20074;-94
2022/02/15 18:34:53;;;;;;;27.08;13.77;;;2.50;99.90;;;;;;5054098;28;20032;-93
2022/02/15 18:37:26;;;;;;;24.08;12.05;;;2.40;99.90;;;;;;5056661;28;20029;-94
2022/02/15 18:39:56;;;;;;;22.48;12.35;;;2.40;99.90;;;;;;5057789;28;20063;-93
2022/02/15 18:42:25;;;;;;;20.50;11.52;;;2.40;99.90;;;;;;5057135;28;20466;-93
2022/02/15 18:44:51;;;;;;;22.63;11.93;;;2.40;99.90;;;;;;5058402;28;20366;-93
2022/02/15 18:47:17;;;;;;;23.40;12.85;;;2.40;99.90;;;;;;5058399;28;20352;-94
2022/02/15 18:49:45;;;;;;;25.80;15.05;;;2.40;99.90;;;;;;5058154;28;20032;-95
2022/02/15 18:52:11;;;;;;;25.92;13.48;;;2.30;99.90;;;;;;5060418;28;20028;-93
2022/02/15 18:54:38;;;;;;;22.80;12.75;;;2.30;99.90;;;;;;5057676;28;20032;-92
2022/02/15 18:57:04;;;;;;;21.17;12.40;;;2.30;99.90;;;;;;5058723;28;20021;-92
2022/02/15 18:59:30;;;;;;;25.05;12.23;;;2.20;99.90;;;;;;5053224;28;20039;-92
2022/02/15 19:01:56;;;;;;;22.42;12.38;;;2.20;99.90;;;;;;5057970;28;20024;-93
2022/02/15 19:04:21;;;;;;;19.55;11.55;;;2.20;99.90;;;;;;5057421;28;20021;-91
2022/02/15 19:06:47;;;;;;;23.95;13.40;;;2.20;99.90;;;;;;5058093;28;20021;-91
2022/02/15 19:09:13;;;;;;;23.65;15.98;;;2.10;99.90;;;;;;5057179;28;20504;-93
2022/02/15 19:11:39;;;;;;;26.63;15.48;;;2.10;99.90;;;;;;5057648;28;20020;-93
2022/02/15 19:14:05;;;;;;;22.90;13.38;;;2.10;99.90;;;;;;5057295;28;20025;-92
2022/02/15 19:16:31;;;;;;;22.40;12.18;;;2.10;99.90;;;;;;5057218;28;20500;-93
2022/02/15 19:18:56;;;;;;;23.35;11.43;;;2.10;99.90;;;;;;5066182;28;20052;-91
2022/02/15 19:21:22;;;;;;;18.38;10.45;;;2.00;99.90;;;;;;5073736;28;20116;-91
2022/02/15 19:23:50;;;;;;;16.23;10.15;;;2.00;99.90;;;;;;5066904;28;20098;-91
2022/02/15 19:26:16;;;;;;;20.75;10.75;;;2.00;99.90;;;;;;5074924;28;20036;-94
2022/02/15 19:28:42;;;;;;;23.05;11.25;;;2.00;99.90;;;;;;5073617;28;20490;-93
2022/02/15 19:34:31;;;;;;;21.30;10.80;;;1.90;99.90;;;;;;5055331;28;20071;-94
2022/02/15 19:36:57;;;;;;;15.95;9.57;;;1.90;99.90;;;;;;5053809;28;20028;-92
2022/02/15 19:39:23;;;;;;;19.80;10.98;;;1.90;99.90;;;;;;5069839;28;20032;-94
2022/02/15 19:41:51;;;;;;;17.77;9.68;;;1.80;99.90;;;;;;5075788;28;20107;-94
2022/02/15 19:44:17;;;;;;;19.60;10.30;;;1.80;99.90;;;;;;5073731;28;20072;-95
2022/02/15 19:46:43;;;;;;;26.33;11.20;;;1.80;99.90;;;;;;5073865;28;20024;-94
2022/02/15 19:49:14;;;;;;;18.35;10.23;;;1.80;99.90;;;;;;5073411;28;20121;-96
2022/02/15 19:51:42;;;;;;;19.10;11.88;;;1.80;99.90;;;;;;5073358;28;20028;-95
2022/02/15 19:54:09;;;;;;;21.23;11.98;;;1.60;99.90;;;;;;5073035;28;20020;-95
2022/02/15 19:56:36;;;;;;;20.55;11.45;;;1.50;99.90;;;;;;5074450;28;20032;-95
2022/02/15 19:59:03;;;;;;;21.77;10.73;;;1.40;99.90;;;;;;5074116;28;20123;-96
2022/02/15 20:01:29;;;;;;;23.38;10.80;;;1.20;99.90;;;;;;5073331;28;20039;-95
2022/02/15 20:03:55;;;;;;;18.67;10.50;;;1.10;99.90;;;;;;5073219;28;20033;-96
2022/02/15 20:06:21;;;;;;;20.73;12.13;;;1.00;99.90;;;;;;5074116;28;20074;-96
2022/02/15 20:08:48;;;;;;;25.98;11.82;;;0.90;99.90;;;;;;5074201;28;20059;-96
2022/02/15 20:11:14;;;;;;;26.50;12.10;;;0.80;99.90;;;;;;5073610;28;20020;-96
2022/02/15 20:13:40;;;;;;;23.67;12.55;;;0.80;99.90;;;;;;5073968;28;20029;-95
2022/02/15 20:16:06;;;;;;;20.83;11.63;;;0.70;99.90;;;;;;5073227;28;20028;-96
2022/02/15 20:18:32;;;;;;;28.70;14.48;;;0.70;99.90;;;;;;5073329;28;20048;-96
2022/02/15 20:20:58;;;;;;;23.38;13.00;;;0.70;99.90;;;;;;5073796;28;20063;-96
2022/02/15 20:23:24;;;;;;;34.42;18.65;;;0.60;99.90;;;;;;5073104;28;20186;-96
2022/02/15 20:25:51;;;;;;;36.83;19.98;;;0.50;99.90;;;;;;5073085;28;20466;-96
2022/02/15 20:28:17;;;;;;;48.03;20.20;;;0.50;99.90;;;;;;5073398;28;20029;-96
2022/02/15 20:30:44;;;;;;;42.90;19.85;;;0.50;99.90;;;;;;5073070;28;20074;-95
2022/02/15 20:33:11;;;;;;;41.00;19.02;;;0.50;99.90;;;;;;5072953;28;20055;-95
2022/02/15 20:35:37;;;;;;;40.33;18.08;;;0.40;99.90;;;;;;5072792;28;20021;-95
2022/02/15 20:38:03;;;;;;;32.88;16.25;;;0.30;99.90;;;;;;5072860;28;20028;-95
2022/02/15 20:40:29;;;;;;;30.73;15.43;;;0.20;99.90;;;;;;5072897;28;20031;-96
2022/02/15 20:42:56;;;;;;;33.72;16.33;;;0.10;99.90;;;;;;5073001;28;20024;-95
2022/02/15 20:45:22;;;;;;;30.40;14.82;;;0.10;99.90;;;;;;5073148;28;20024;-96
2022/02/15 20:47:49;;;;;;;26.13;14.27;;;0.00;99.90;;;;;;5073950;28;20020;-95
2022/02/15 20:50:15;;;;;;;27.52;14.45;;;-0.10;99.90;;;;;;5072771;28;20046;-95
2022/02/15 20:52:41;;;;;;;28.40;16.05;;;-0.20;99.90;;;;;;5073752;28;20075;-96
2022/02/15 20:55:12;;;;;;;30.23;15.23;;;-0.30;99.90;;;;;;5072831;28;20020;-95
2022/02/15 20:57:38;;;;;;;30.58;15.40;;;-0.40;99.90;;;;;;5072877;28;20085;-95
2022/02/15 21:00:05;;;;;;;26.00;14.48;;;-0.40;99.90;;;;;;5073151;28;20490;-96
2022/02/15 21:02:31;;;;;;;26.30;13.68;;;-0.50;99.90;;;;;;5072866;28;20048;-95
2022/02/15 21:04:56;;;;;;;33.67;14.35;;;-0.60;99.90;;;;;;5073781;28;20118;-96
2022/02/15 21:07:22;;;;;;;29.92;14.75;;;-0.70;99.90;;;;;;5076766;28;20025;-95
2022/02/15 21:09:49;;;;;;;25.55;14.10;;;-0.70;99.90;;;;;;5076793;28;20024;-96
2022/02/15 21:12:18;;;;;;;25.58;13.80;;;-0.70;99.90;;;;;;5076449;28;20028;-96
2022/02/15 21:14:47;;;;;;;25.45;14.05;;;-0.70;99.90;;;;;;5076311;28;20035;-96
2022/02/15 21:17:13;;;;;;;23.98;12.98;;;-0.80;99.90;;;;;;5076472;28;20032;-95
2022/02/15 21:19:39;;;;;;;24.20;13.20;;;-0.80;99.90;;;;;;5042530;28;20053;-96
2022/02/15 21:22:05;;;;;;;23.05;13.25;;;-0.90;99.90;;;;;;5039825;28;20027;-96
2022/02/15 21:24:31;;;;;;;20.52;12.00;;;-0.90;99.90;;;;;;5040347;28;20025;-95
2022/02/15 21:26:57;;;;;;;23.05;12.75;;;-1.00;99.90;;;;;;5039702;28;20020;-95
2022/02/15 21:29:23;;;;;;;20.38;12.10;;;-0.90;99.90;;;;;;5039819;28;20086;-95
2022/02/15 21:31:49;;;;;;;25.88;12.15;;;-1.00;99.90;;;;;;5039837;28;20420;-96
2022/02/15 21:34:15;;;;;;;19.75;12.90;;;-1.00;99.90;;;;;;5039595;28;20033;-96
2022/02/15 21:36:41;;;;;;;20.75;12.38;;;-1.10;99.90;;;;;;5039764;28;20025;-95
2022/02/15 21:39:11;;;;;;;22.73;12.32;;;-1.10;99.90;;;;;;5039621;28;20033;-95
2022/02/15 21:41:37;;;;;;;21.20;12.63;;;-1.10;99.90;;;;;;5039617;28;20025;-95
2022/02/15 21:44:03;;;;;;;21.30;12.20;;;-1.20;99.90;;;;;;5039672;28;20025;-95
2022/02/15 21:46:29;;;;;;;21.38;13.85;;;-1.20;99.90;;;;;;5040047;28;20021;-95
2022/02/15 21:48:55;;;;;;;25.80;13.93;;;-1.20;99.90;;;;;;5041017;28;20546;-95
2022/02/15 21:51:20;;;;;;;25.25;14.70;;;-1.20;99.90;;;;;;5039780;28;20379;-95
2022/02/15 21:53:46;;;;;;;26.27;14.90;;;-1.30;99.90;;;;;;5039415;28;20048;-95
2022/02/15 21:56:12;;;;;;;38.05;18.73;;;-1.30;99.90;;;;;;5039180;28;20033;-94
2022/02/15 21:58:39;;;;;;;31.27;16.90;;;-1.40;99.90;;;;;;5039284;28;20021;-95
2022/02/15 22:01:06;;;;;;;35.17;17.38;;;-1.40;99.90;;;;;;5038622;28;20131;-95
2022/02/15 22:03:32;;;;;;;28.08;15.70;;;-1.40;99.90;;;;;;5038954;28;20032;-94
2022/02/15 22:06:00;;;;;;;29.88;16.58;;;-1.30;99.90;;;;;;5039710;28;20361;-94
2022/02/15 22:08:26;;;;;;;29.15;16.00;;;-1.20;99.90;;;;;;5039490;28;20049;-94
2022/02/15 22:10:51;;;;;;;32.70;16.48;;;-1.20;99.90;;;;;;5038788;28;20025;-94
2022/02/15 22:13:17;;;;;;;33.05;17.83;;;-1.10;99.90;;;;;;5038667;28;20029;-94
2022/02/15 22:15:43;;;;;;;27.75;14.95;;;-1.00;99.90;;;;;;5039020;28;20078;-94
2022/02/15 22:18:09;;;;;;;30.63;16.77;;;-0.90;99.90;;;;;;5038256;28;20049;-94
2022/02/15 22:20:39;;;;;;;28.10;15.98;;;-0.80;99.90;;;;;;5038460;28;20025;-94
2022/02/15 22:23:08;;;;;;;32.65;16.80;;;-0.70;99.90;;;;;;5038307;28;20021;-94
2022/02/15 22:25:35;;;;;;;37.58;18.40;;;-0.60;99.90;;;;;;5038485;28;20375;-94
2022/02/15 22:28:00;;;;;;;40.13;20.58;;;-0.50;99.90;;;;;;5038266;28;20025;-95
2022/02/15 22:30:26;;;;;;;34.88;19.90;;;-0.40;99.90;;;;;;5038401;28;20048;-94
2022/02/15 22:32:52;;;;;;;30.13;17.05;;;-0.40;99.90;;;;;;5038918;28;20029;-94
2022/02/15 22:35:19;;;;;;;38.80;21.40;;;-0.20;99.90;;;;;;5038561;28;20082;-94
2022/02/15 22:37:45;;;;;;;35.72;19.35;;;-0.10;99.90;;;;;;5037965;28;20387;-94
2022/02/15 22:40:13;;;;;;;37.72;18.92;;;-0.10;99.90;;;;;;5038092;28;20021;-95
2022/02/15 22:42:40;;;;;;;36.05;18.60;;;0.10;99.90;;;;;;5038584;28;20067;-94
2022/02/15 22:45:07;;;;;;;33.72;18.25;;;0.20;99.90;;;;;;5038388;28;20088;-94
2022/02/15 22:47:34;;;;;;;35.40;18.80;;;0.20;99.90;;;;;;5037958;28;20025;-94
2022/02/15 22:50:00;;;;;;;32.00;17.67;;;0.30;99.90;;;;;;5037996;28;20025;-94
2022/02/15 22:52:27;;;;;;;37.72;19.05;;;0.40;99.90;;;;;;5038297;28;20020;-95
2022/02/15 22:54:56;;;;;;;37.88;19.08;;;0.40;99.90;;;;;;5037959;28;20040;-95
2022/02/15 22:57:24;;;;;;;42.83;19.52;;;0.50;99.90;;;;;;5038383;28;20025;-95